Princesa Das Ondas — CUGX8 — position and weather

sailwx.info

Track history (hours):
 
Tides and Currents Weather Stations Pressure Air Temp Water Temp Dewpoint Dewpoint Depression Visibility Wind Speed Wind Dir Waves Ship Positions

Princesa Das Ondas

Last reported at 2017-Sep-21 20:44 UTC. Time now 2017-Sep-23 23:59 UTC.
Position N 39°15' W 009°25'.

Length 18 m.

Type: Fishing. MMSI: 263410460.

Date/timePositionNaut miles runAvg speedWind from/ knotsBaromVisibWave heightAir tempDewpointWater temp
2017-Sep-21 20:44N 39°15' W 009°25'2 8.5
2017-Sep-21 20:28N 39°13' W 009°26'3 7.0
2017-Sep-21 20:00N 39°10' W 009°28'1 1.0
2017-Sep-21 19:30N 39°11' W 009°27'0 0.5
2017-Sep-21 19:00N 39°11' W 009°27'2 3.1
2017-Sep-21 18:31N 39°10' W 009°26'1 2.3
2017-Sep-21 18:00N 39°09' W 009°25'4 3.9
2017-Sep-21 16:53N 39°13' W 009°22'5 0.3
2017-Sep-20 21:08N 39°17' W 009°24'3 9.3
2017-Sep-20 20:51N 39°15' W 009°25'3 9.1
2017-Sep-20 20:31N 39°12' W 009°27'4 8.6
2017-Sep-20 20:01N 39°08' W 009°28'0 0.1
2017-Sep-20 19:31N 39°08' W 009°28'0 0.6
2017-Sep-20 19:01N 39°08' W 009°28'1 2.7
2017-Sep-20 18:31N 39°08' W 009°26'5 9.3
2017-Sep-20 17:59N 39°13' W 009°24'9 4.5
2017-Sep-20 15:58N 39°22' W 009°25'6 8.5
2017-Sep-20 15:15N 39°26' W 009°31'2 3.7
2017-Sep-20 14:41N 39°27' W 009°33'1 1.3
2017-Sep-20 13:47N 39°28' W 009°32'7 4.8
2017-Sep-20 12:20N 39°22' W 009°27'4 0.1
2017-Sep-18 17:40N 39°19' W 009°24'1 3.1
2017-Sep-18 17:27N 39°18' W 009°24'3 6.6
2017-Sep-18 16:59N 39°20' W 009°26'  
2017-Sep-15 18:49N 39°13' W 009°23'1 0.1
2017-Sep-14 20:22N 39°15' W 009°23'0 0.0
2017-Sep-13 19:23N 39°15' W 009°23'0 0.0
2017-Sep-12 20:09N 39°14' W 009°22'2 2.5
2017-Sep-12 19:30N 39°13' W 009°23'1 0.5
2017-Sep-12 17:45N 39°12' W 009°22'2 6.5
2017-Sep-12 17:29N 39°14' W 009°22'  
Track history (hours):
 
Tides and Currents Weather Stations Pressure Air Temp Water Temp Dewpoint Dewpoint Depression Visibility Wind Speed Wind Dir Waves Ship Positions

Princesa Das Ondas

Last reported at 2017-Sep-21 20:44 UTC. Time now 2017-Sep-23 23:59 UTC.
Position N 39°15' W 009°25'.

Length 18 m.

Type: Fishing. MMSI: 263410460.

Date/timePositionNaut miles runAvg speedWind from/ knotsBaromVisibWave heightAir tempDewpointWater temp
2017-Sep-21 20:44N 39°15' W 009°25'2 8.5
2017-Sep-21 20:28N 39°13' W 009°26'3 7.0
2017-Sep-21 20:00N 39°10' W 009°28'1 1.0
2017-Sep-21 19:30N 39°11' W 009°27'0 0.5
2017-Sep-21 19:00N 39°11' W 009°27'2 3.1
2017-Sep-21 18:31N 39°10' W 009°26'1 2.3
2017-Sep-21 18:00N 39°09' W 009°25'4 3.9
2017-Sep-21 16:53N 39°13' W 009°22'5 0.3
2017-Sep-20 21:08N 39°17' W 009°24'3 9.3
2017-Sep-20 20:51N 39°15' W 009°25'3 9.1
2017-Sep-20 20:31N 39°12' W 009°27'4 8.6
2017-Sep-20 20:01N 39°08' W 009°28'0 0.1
2017-Sep-20 19:31N 39°08' W 009°28'0 0.6
2017-Sep-20 19:01N 39°08' W 009°28'1 2.7
2017-Sep-20 18:31N 39°08' W 009°26'5 9.3
2017-Sep-20 17:59N 39°13' W 009°24'9 4.5
2017-Sep-20 15:58N 39°22' W 009°25'6 8.5
2017-Sep-20 15:15N 39°26' W 009°31'2 3.7
2017-Sep-20 14:41N 39°27' W 009°33'1 1.3
2017-Sep-20 13:47N 39°28' W 009°32'7 4.8
2017-Sep-20 12:20N 39°22' W 009°27'4 0.1
2017-Sep-18 17:40N 39°19' W 009°24'1 3.1
2017-Sep-18 17:27N 39°18' W 009°24'3 6.6
2017-Sep-18 16:59N 39°20' W 009°26'  
2017-Sep-15 18:49N 39°13' W 009°23'1 0.1
2017-Sep-14 20:22N 39°15' W 009°23'0 0.0
2017-Sep-13 19:23N 39°15' W 009°23'0 0.0
2017-Sep-12 20:09N 39°14' W 009°22'2 2.5
2017-Sep-12 19:30N 39°13' W 009°23'1 0.5
2017-Sep-12 17:45N 39°12' W 009°22'2 6.5
2017-Sep-12 17:29N 39°14' W 009°22'  

Dump ship's entire track history